Atwood, Kentucky
Current Conditions -  °F | °C
As of 4:52 PM on Thursday 23 Oct 2014 (Local Time) from KCVG Reporting Station
Broken Clouds Broken Clouds  
Wind Chill: 59°   Ceiling: 25000
Heat Index: 59°   Visibility: 10mi
Dew Point: 38°   Wind: 0mph
Humidity: 46%   Direction: NA
Pressure: 30.13"   Gusts: NA
Location:  38.8354°N, 84.5143°W
Report Text: KCVG 232052Z 00000KT 10SM BKN250 15/03 A3013 RMK AO2 SLP202 T01500033 56021
Loading
Personal Weather Stations






























Interactive Weather Map
Tropical Storm Tracking
New forecast layout! Learn more

10-Day Weather Forecast

Advertisements
Track Severe Weather on mobile